createdAt,value
2022-09-06T00:03:39.306Z,-25.9
2022-09-06T00:05:40.760Z,-25.8
2022-09-06T00:07:42.082Z,-25.6
2022-09-06T00:09:43.607Z,-25.7
2022-09-06T00:11:45.094Z,-26
2022-09-06T00:13:46.641Z,-25.7
2022-09-06T00:17:49.569Z,-26
2022-09-06T00:19:50.779Z,-26.3
2022-09-06T00:21:52.113Z,-26.1
2022-09-06T00:23:53.151Z,-26
2022-09-06T00:25:54.755Z,-26.2
2022-09-06T00:27:55.770Z,-26.2
2022-09-06T00:33:59.828Z,-26.1
2022-09-06T00:36:01.085Z,-26.1
2022-09-06T00:38:02.934Z,-25.9
2022-09-06T00:40:04.425Z,-26.1
2022-09-06T00:42:06.186Z,-25.9
2022-09-06T00:44:07.776Z,-26.1
2022-09-06T00:46:09.288Z,-26
2022-09-06T00:52:13.552Z,-26.1
2022-09-06T00:54:14.514Z,-26
2022-09-06T00:56:15.686Z,-25.9
2022-09-06T00:58:16.853Z,-26.1
2022-09-06T01:00:18.163Z,-25.8
2022-09-06T01:02:19.900Z,-26.3
2022-09-06T01:04:21.046Z,-26.2
2022-09-06T01:06:22.571Z,-25.8
2022-09-06T01:08:24.471Z,-26.2
2022-09-06T01:10:25.756Z,-26.2
2022-09-06T01:12:27.542Z,-26.4
2022-09-06T01:14:29.183Z,-26.1
2022-09-06T01:16:30.857Z,-26.1
2022-09-06T01:18:32.382Z,-25.9
2022-09-06T01:20:34.121Z,-25.9
2022-09-06T01:22:35.344Z,-26.4
2022-09-06T01:24:36.680Z,-25.7
2022-09-06T01:26:37.683Z,-26.2
2022-09-06T01:28:39.061Z,-25.7
2022-09-06T01:30:40.470Z,-25.9
2022-09-06T01:34:43.727Z,-26.2
2022-09-06T01:36:59.958Z,-26
2022-09-06T01:38:46.318Z,-26.1
2022-09-06T01:40:47.558Z,-26.2
2022-09-06T01:42:48.535Z,-26
2022-09-06T01:44:49.520Z,-25.7
2022-09-06T01:46:51.020Z,-25.9
2022-09-06T01:52:55.119Z,-26
2022-09-06T01:56:58.051Z,-26.3
2022-09-06T01:58:59.026Z,-26.1
2022-09-06T02:01:44.122Z,-26.2
2022-09-06T02:03:45.178Z,-25.8
2022-09-06T02:05:46.161Z,-25.8
2022-09-06T02:11:50.550Z,-26
2022-09-06T02:13:52.275Z,-26
2022-09-06T02:15:53.324Z,-25.9
2022-09-06T02:17:54.353Z,-26
2022-09-06T02:21:56.965Z,-25.9
2022-09-06T02:23:58.857Z,-26
2022-09-06T02:26:00.340Z,-25.9
2022-09-06T02:28:01.998Z,-25.9
2022-09-06T02:30:03.576Z,-26
2022-09-06T02:32:04.974Z,-26.1
2022-09-06T02:34:06.087Z,-25.9
2022-09-06T02:38:08.528Z,-26
2022-09-06T02:40:10.437Z,-26
2022-09-06T02:42:11.377Z,-26
2022-09-06T02:44:13.210Z,-25.9
2022-09-06T02:46:14.707Z,-26
2022-09-06T02:48:15.984Z,-25.9
2022-09-06T02:50:17.424Z,-26.1
2022-09-06T02:52:18.636Z,-26.2
2022-09-06T02:54:19.881Z,-26
2022-09-06T02:58:22.469Z,-26.1
2022-09-06T03:00:23.656Z,-25.7
2022-09-06T03:02:25.311Z,-26.2
2022-09-06T03:04:26.207Z,-26
2022-09-06T03:10:30.370Z,-25.8
2022-09-06T03:12:31.746Z,-25.9
2022-09-06T03:14:33.104Z,-26
2022-09-06T03:16:34.514Z,-25.9
2022-09-06T03:18:36.301Z,-25.9
2022-09-06T03:20:37.720Z,-26
2022-09-06T03:22:39.480Z,-26.2
2022-09-06T03:24:41.037Z,-26
2022-09-06T03:26:42.454Z,-25.5
2022-09-06T03:28:43.725Z,-26.1
2022-09-06T03:30:45.317Z,-25.8
2022-09-06T03:32:46.847Z,-25.7
2022-09-06T03:36:48.921Z,-25.9
2022-09-06T03:38:50.202Z,-25.8
2022-09-06T03:40:51.609Z,-26
2022-09-06T03:42:53.383Z,-25.7
2022-09-06T03:44:54.762Z,-25.8
2022-09-06T03:46:56.640Z,-25.7
2022-09-06T03:48:57.575Z,-25.8
2022-09-06T03:50:59.273Z,-25.9
2022-09-06T03:53:00.962Z,-26
2022-09-06T03:55:02.154Z,-26
2022-09-06T03:57:03.220Z,-25.7
2022-09-06T03:59:05.070Z,-25.8
2022-09-06T04:01:06.153Z,-25.9
2022-09-06T04:03:07.795Z,-26.1
2022-09-06T04:09:12.886Z,-25.7
2022-09-06T04:11:13.789Z,-25.9
2022-09-06T04:13:15.382Z,-25.7
2022-09-06T04:15:17.072Z,-25.9
2022-09-06T04:17:17.987Z,-25.7
2022-09-06T04:19:19.739Z,-25.7
2022-09-06T04:21:20.731Z,-25.8
2022-09-06T04:23:22.164Z,-25.9
2022-09-06T04:25:23.738Z,-25.7
2022-09-06T04:27:24.663Z,-25.9
2022-09-06T04:29:26.561Z,-25.9
2022-09-06T04:31:27.727Z,-25.8
2022-09-06T04:33:29.156Z,-25.9
2022-09-06T04:35:30.646Z,-25.8
2022-09-06T04:39:33.206Z,-25.9
2022-09-06T04:41:34.853Z,-25.8
2022-09-06T04:43:36.605Z,-25.8
2022-09-06T04:45:37.705Z,-26
2022-09-06T04:47:39.356Z,-25.7
2022-09-06T04:51:42.608Z,-25.8
2022-09-06T04:53:44.321Z,-26
2022-09-06T04:55:45.673Z,-25.8
2022-09-06T04:57:50.731Z,-25.8
2022-09-06T04:59:48.324Z,-25.7
2022-09-06T05:01:49.809Z,-25.8
2022-09-06T05:05:52.442Z,-25.8
2022-09-06T05:07:54.166Z,-25.7
2022-09-06T05:09:55.737Z,-25.9
2022-09-06T05:11:56.651Z,-25.7
2022-09-06T05:13:58.018Z,-25.7
2022-09-06T05:15:59.485Z,-26.1
2022-09-06T05:18:01.251Z,-26
2022-09-06T05:20:02.479Z,-25.6
2022-09-06T05:22:04.194Z,-25.8
2022-09-06T05:24:05.433Z,-25.8
2022-09-06T05:26:06.954Z,-25.7
2022-09-06T05:28:08.031Z,-25.9
2022-09-06T05:30:09.408Z,-25.7
2022-09-06T05:32:11.042Z,-25.8
2022-09-06T05:34:12.609Z,-25.8
2022-09-06T05:36:13.682Z,-25.7
2022-09-06T05:38:15.258Z,-25.9
2022-09-06T05:40:16.158Z,-25.8
2022-09-06T05:42:19.343Z,-25.7
2022-09-06T05:48:22.311Z,-25.5
2022-09-06T05:50:24.066Z,-13.2
2022-09-06T05:52:25.822Z,-25.9
2022-09-06T05:54:27.352Z,-17.7
2022-09-06T05:56:28.688Z,61.4
2022-09-06T05:58:29.659Z,60.7
2022-09-06T06:00:31.331Z,78.9
2022-09-06T06:02:32.635Z,77.8
2022-09-06T06:04:34.393Z,76.69
2022-09-06T06:06:35.981Z,76.1
2022-09-06T06:08:37.516Z,74.9
2022-09-06T06:10:38.671Z,74.5
2022-09-06T06:16:43.086Z,7.9
2022-09-06T06:18:46.739Z,6.2
2022-09-06T06:20:45.351Z,10.9
2022-09-06T06:22:46.500Z,38.09
2022-09-06T06:24:47.472Z,6.7
2022-09-06T06:26:49.193Z,0.8
2022-09-06T06:28:50.335Z,7.4
2022-09-06T06:30:51.766Z,2.4
2022-09-06T06:32:52.781Z,0.9
2022-09-06T06:34:54.237Z,0.4
2022-09-06T06:36:55.903Z,-1.6
2022-09-06T06:38:57.725Z,-10.7
2022-09-06T06:41:01.017Z,-12.9
2022-09-06T06:43:00.565Z,-12.7
2022-09-06T06:45:02.030Z,-11
2022-09-06T06:47:03.801Z,-11.1
2022-09-06T06:49:05.511Z,-8.7
2022-09-06T06:51:06.368Z,-6.3
2022-09-06T06:53:07.636Z,-2.7
2022-09-06T06:57:09.989Z,2.5
2022-09-06T06:59:11.551Z,8.39
2022-09-06T07:01:13.442Z,7
2022-09-06T07:03:14.228Z,11.7
2022-09-06T07:07:34.340Z,69.6
2022-09-06T07:09:19.164Z,68.3
2022-09-06T07:15:23.742Z,8.8
2022-09-06T07:17:24.764Z,30.2
2022-09-06T07:21:39.401Z,30.4
2022-09-06T07:25:30.214Z,62.7
2022-09-06T07:27:47.876Z,61.7
2022-09-06T07:29:33.451Z,59.8
2022-09-06T07:33:35.683Z,56.7
2022-09-06T07:35:36.509Z,55.7
2022-09-06T07:37:37.535Z,53.8
2022-09-06T07:39:38.966Z,51.5
2022-09-06T07:41:39.715Z,49.9
2022-09-06T07:43:41.434Z,47.5
2022-09-06T07:45:43.137Z,47.3
2022-09-06T07:47:58.688Z,44.7
2022-09-06T07:51:47.122Z,41.4
2022-09-06T07:53:50.405Z,39.7
2022-09-06T07:55:49.929Z,37.3
2022-09-06T07:57:51.011Z,35.59
2022-09-06T07:59:52.433Z,32.7
2022-09-06T08:01:53.945Z,32.59
2022-09-06T08:03:55.077Z,28.7
2022-09-06T08:06:10.781Z,27.5
2022-09-06T08:09:59.329Z,24
2022-09-06T08:18:04.878Z,19.5
2022-09-06T08:20:06.410Z,19.4
2022-09-06T08:22:07.925Z,18.1
2022-09-06T08:24:09.191Z,16.7
2022-09-06T08:28:11.662Z,15.7
2022-09-06T08:30:13.400Z,14.6
2022-09-06T08:32:14.558Z,12.7
2022-09-06T08:34:16.045Z,12.6
2022-09-06T08:40:20.121Z,9.8
2022-09-06T08:42:21.344Z,9
2022-09-06T08:45:06.543Z,7.8
2022-09-06T08:51:11.058Z,-25.8
2022-09-06T08:53:17.071Z,-25.7
2022-09-06T08:55:14.116Z,-25.3
2022-09-06T08:57:15.299Z,-25.6
2022-09-06T08:59:16.099Z,-25.7
2022-09-06T09:01:16.988Z,-25.7
2022-09-06T09:03:17.958Z,-25.4
2022-09-06T09:05:19.606Z,-25.6
2022-09-06T09:07:20.816Z,-25.6
2022-09-06T09:11:23.393Z,-25.4
2022-09-06T09:13:25.076Z,-25.4
2022-09-06T09:15:25.925Z,-25.6
2022-09-06T09:17:27.214Z,-25.8
2022-09-06T09:21:30.823Z,-25.6
2022-09-06T09:23:30.647Z,-25.7
2022-09-06T09:25:31.469Z,-25.6
2022-09-06T09:33:35.294Z,-25.9
2022-09-06T09:35:36.314Z,-25.7
2022-09-06T09:39:38.608Z,-25.4
2022-09-06T09:41:39.552Z,-25.6
2022-09-06T09:43:40.982Z,-25.6
2022-09-06T09:45:42.041Z,-25.5
2022-09-06T09:47:43.547Z,-25.6
2022-09-06T09:49:44.700Z,-25.6
2022-09-06T09:51:45.560Z,-25.5
2022-09-06T09:53:46.633Z,-25.7
2022-09-06T09:55:47.752Z,-25.6
2022-09-06T09:57:48.546Z,-25.6
2022-09-06T10:05:56.352Z,-25.8
2022-09-06T10:07:54.747Z,-25.7
2022-09-06T10:09:55.716Z,-25.6
2022-09-06T10:11:56.744Z,-25.7
2022-09-06T10:13:58.119Z,-25.9
2022-09-06T10:15:59.952Z,-25.5
2022-09-06T10:18:01.431Z,-25.5
2022-09-06T10:20:04.003Z,-25.8
2022-09-06T10:22:04.753Z,-25.7
2022-09-06T10:24:28.563Z,-25.8
2022-09-06T10:26:06.892Z,-25.7
2022-09-06T10:28:11.175Z,-25.7
2022-09-06T10:30:08.956Z,-25.7
2022-09-06T10:32:09.785Z,-25.7
2022-09-06T10:34:11.493Z,-25.5
2022-09-06T10:36:13.194Z,-25.4
2022-09-06T10:38:14.144Z,-25.5
2022-09-06T10:40:15.687Z,-25.6
2022-09-06T10:42:16.652Z,-25.5
2022-09-06T10:46:18.705Z,-25.7
2022-09-06T10:48:20.101Z,-25.6
2022-09-06T10:50:21.302Z,-25.7
2022-09-06T10:52:23.039Z,-25.7
2022-09-06T10:54:24.080Z,-25.5
2022-09-06T10:56:25.169Z,-25.8
2022-09-06T10:58:26.343Z,-25.5
2022-09-06T11:00:27.601Z,-25.7
2022-09-06T11:02:29.014Z,-25.7
2022-09-06T11:04:29.702Z,-25.5
2022-09-06T11:06:30.832Z,-25.4
2022-09-06T11:08:47.678Z,-25.7
2022-09-06T11:10:33.591Z,-25.5
2022-09-06T11:12:35.142Z,-25.2
2022-09-06T11:14:36.237Z,-25.4
2022-09-06T11:16:37.485Z,-25.9
2022-09-06T11:18:39.024Z,-25.4
2022-09-06T11:20:39.826Z,-25.7
2022-09-06T11:22:40.762Z,-25.8
2022-09-06T11:24:41.653Z,-25.5
2022-09-06T11:26:42.473Z,-25.5
2022-09-06T11:28:43.569Z,-25.6
2022-09-06T11:30:44.379Z,-25.6
2022-09-06T11:32:45.695Z,-25.4
2022-09-06T11:34:46.996Z,-25.6
2022-09-06T11:36:48.434Z,-25.7
2022-09-06T11:38:49.320Z,-25.4
2022-09-06T11:40:51.073Z,-25.4
2022-09-06T11:44:53.135Z,-25.5
2022-09-06T11:46:54.310Z,-25.5
2022-09-06T11:48:55.180Z,-25.5
2022-09-06T11:50:56.891Z,-25.5
2022-09-06T11:57:01.329Z,-25.6
2022-09-06T11:59:02.826Z,-25.7
2022-09-06T12:01:03.848Z,-25.3
2022-09-06T12:05:06.348Z,-25.5
2022-09-06T12:13:11.540Z,-25.6
2022-09-06T12:15:12.833Z,-25.6
2022-09-06T12:17:13.861Z,-25.4
2022-09-06T12:19:14.864Z,-25.4
2022-09-06T12:21:16.213Z,-25.8
2022-09-06T12:23:17.049Z,-25.6
2022-09-06T12:25:18.087Z,-25.4
2022-09-06T12:27:19.028Z,-25.8
2022-09-06T12:29:19.927Z,-25.5
2022-09-06T12:31:20.835Z,-25.8
2022-09-06T12:33:21.609Z,-25.7
2022-09-06T12:37:24.114Z,-25.8
2022-09-06T12:43:28.391Z,-25.9
2022-09-06T12:45:29.176Z,-25.5
2022-09-06T12:47:32.233Z,-25.8
2022-09-06T12:49:33.099Z,-25.7
2022-09-06T12:55:35.136Z,-25.5
2022-09-06T12:57:36.173Z,-25.6
2022-09-06T12:59:37.059Z,-25.5
2022-09-06T13:01:38.112Z,-25.6
2022-09-06T13:03:39.021Z,-25.6
2022-09-06T13:09:43.077Z,-25.7
2022-09-06T13:11:43.871Z,-25.7
2022-09-06T13:13:45.157Z,-25.5
2022-09-06T13:15:46.883Z,-25.5
2022-09-06T13:17:47.480Z,-25.7
2022-09-06T13:19:48.542Z,-25.8
2022-09-06T13:21:50.120Z,-25.8
2022-09-06T13:23:51.081Z,-25.5
2022-09-06T13:25:52.594Z,-26
2022-09-06T13:29:54.302Z,-25.5
2022-09-06T13:31:55.237Z,-25.8
2022-09-06T13:33:56.006Z,-25.4
2022-09-06T13:35:57.356Z,-25.7
2022-09-06T13:42:00.839Z,-25.7
2022-09-06T13:44:02.375Z,-25.7
2022-09-06T13:46:04.088Z,-25.8
2022-09-06T13:48:26.066Z,-25.2
2022-09-06T13:50:06.905Z,-25.5
2022-09-06T13:52:08.211Z,-25.3
2022-09-06T13:56:09.794Z,-25.5
2022-09-06T13:58:10.618Z,-25.6
2022-09-06T14:00:11.951Z,-25.7
2022-09-06T14:02:13.652Z,-25.5
2022-09-06T14:04:14.850Z,-25.6
2022-09-06T14:08:16.599Z,-25.6
2022-09-06T14:12:19.415Z,-25.7
2022-09-06T14:14:20.399Z,-25.7
2022-09-06T14:16:21.625Z,-25.8
2022-09-06T14:18:22.394Z,-25.7
2022-09-06T14:20:23.471Z,-25.2
2022-09-06T14:22:25.052Z,-25.7
2022-09-06T14:24:25.978Z,-25.5
2022-09-06T14:26:26.907Z,-25.8
2022-09-06T14:28:27.873Z,-25.7
2022-09-06T14:30:29.110Z,-25.7
2022-09-06T14:32:30.039Z,-25.7
2022-09-06T14:34:31.074Z,-25.6
2022-09-06T14:40:36.331Z,64.5
2022-09-06T14:42:37.494Z,61.9
2022-09-06T14:44:38.989Z,61
2022-09-06T14:46:39.871Z,8
2022-09-06T14:48:42.354Z,-7.2
2022-09-06T14:50:42.256Z,-9.7
2022-09-06T14:54:44.197Z,5.4
2022-09-06T14:56:45.594Z,57.9
2022-09-06T14:58:46.472Z,55.6
2022-09-06T15:00:47.330Z,54.8
2022-09-06T15:06:51.433Z,50.6
2022-09-06T15:08:55.702Z,9.8
2022-09-06T15:10:54.325Z,-7.9
2022-09-06T15:12:55.283Z,-1.3
2022-09-06T15:14:56.226Z,-14.5
2022-09-06T15:16:57.790Z,-14.1
2022-09-06T15:18:59.180Z,-12.6
2022-09-06T15:21:00.906Z,-3.8
2022-09-06T15:23:24.153Z,-12.7
2022-09-06T15:25:03.705Z,-19.7
2022-09-06T15:27:05.362Z,-21.4
2022-09-06T15:29:07.043Z,-21.7
2022-09-06T15:31:08.858Z,-23.3
2022-09-06T15:33:53.592Z,-23
2022-09-06T15:35:54.373Z,-18.1
2022-09-06T15:37:55.383Z,-19
2022-09-06T15:39:56.407Z,-25.7
2022-09-06T15:41:57.665Z,-25.5
2022-09-06T15:43:58.851Z,-25.5
2022-09-06T15:45:59.729Z,-25.6
2022-09-06T15:48:00.822Z,-25.7
2022-09-06T15:50:02.118Z,-25.8
2022-09-06T15:52:03.850Z,-25.9
2022-09-06T15:58:06.941Z,-25.6
2022-09-06T16:00:08.619Z,-25.6
2022-09-06T16:02:10.154Z,-25.9
2022-09-06T16:04:11.379Z,-25.8
2022-09-06T16:06:28.514Z,-25.7
2022-09-06T16:08:14.614Z,-25.8
2022-09-06T16:10:15.686Z,-25.8
2022-09-06T16:16:19.312Z,-25.3
2022-09-06T16:18:20.654Z,-25.9
2022-09-06T16:20:21.599Z,-25.5
2022-09-06T16:22:23.352Z,-25.9
2022-09-06T16:24:24.823Z,-25.7
2022-09-06T16:26:26.313Z,-26
2022-09-06T16:28:28.331Z,-25.8
2022-09-06T16:30:29.541Z,-25.9
2022-09-06T16:32:30.759Z,-25.5
2022-09-06T16:34:32.410Z,-25.9
2022-09-06T16:36:33.391Z,-26
2022-09-06T16:38:34.543Z,-25.7
2022-09-06T16:40:35.367Z,-26
2022-09-06T16:42:37.012Z,-25.8
2022-09-06T16:44:38.381Z,-25.7
2022-09-06T16:46:39.450Z,-25.8
2022-09-06T16:48:41.085Z,-25.6
2022-09-06T16:52:43.141Z,-26.3
2022-09-06T16:54:44.897Z,-25.8
2022-09-06T16:56:45.999Z,-26.1
2022-09-06T16:58:47.549Z,-26.1
2022-09-06T17:00:49.036Z,-26.1
2022-09-06T17:02:50.538Z,-25.9
2022-09-06T17:04:51.787Z,-25.7
2022-09-06T17:06:52.858Z,-26.1
2022-09-06T17:12:56.763Z,-25.9
2022-09-06T17:14:57.926Z,-25.7
2022-09-06T17:16:59.844Z,-26.1
2022-09-06T17:19:00.980Z,-25.8
2022-09-06T17:21:01.824Z,-26.1
2022-09-06T17:23:03.125Z,-26
2022-09-06T17:27:05.629Z,-26.1
2022-09-06T17:29:06.555Z,-25.8
2022-09-06T17:31:07.686Z,-25.6
2022-09-06T17:33:08.539Z,-25.7
2022-09-06T17:35:09.924Z,-25.7
2022-09-06T17:37:10.958Z,-25.7
2022-09-06T17:41:13.849Z,-25.8
2022-09-06T17:43:15.068Z,-25.8
2022-09-06T17:45:16.118Z,-25.7
2022-09-06T17:47:17.842Z,-25.7
2022-09-06T17:49:19.166Z,-25.6
2022-09-06T17:51:20.541Z,-25.5
2022-09-06T17:57:25.396Z,-25.9
2022-09-06T17:59:29.490Z,-25.8
2022-09-06T18:01:28.355Z,-25.8
2022-09-06T18:03:30.111Z,-26
2022-09-06T18:05:31.676Z,-25.7
2022-09-06T18:07:32.659Z,-25.8
2022-09-06T18:09:34.278Z,-25.5
2022-09-06T18:11:35.487Z,-25.7
2022-09-06T18:13:36.544Z,-26
2022-09-06T18:15:37.880Z,-25.5
2022-09-06T18:17:39.658Z,-25.5
2022-09-06T18:21:42.776Z,-25.7
2022-09-06T18:23:44.098Z,-25.9
2022-09-06T18:27:46.635Z,-25.7
2022-09-06T18:29:47.806Z,-26
2022-09-06T18:31:49.421Z,-25.8
2022-09-06T18:33:50.531Z,-25.8
2022-09-06T18:37:53.718Z,-25.6
2022-09-06T18:39:55.255Z,-25.6
2022-09-06T18:41:56.681Z,-25.8
2022-09-06T18:43:58.374Z,-25.7
2022-09-06T18:46:00.258Z,-25.6
2022-09-06T18:48:01.517Z,-25.6
2022-09-06T18:50:03.053Z,-25.7
2022-09-06T18:54:06.081Z,-25.6
2022-09-06T18:56:07.908Z,-25.8
2022-09-06T19:00:10.679Z,-25.7
2022-09-06T19:06:15.419Z,-25.6
2022-09-06T19:08:16.444Z,-25.6
2022-09-06T19:10:18.238Z,-25.7
2022-09-06T19:12:19.319Z,-25.7
2022-09-06T19:14:20.739Z,-26
2022-09-06T19:16:21.890Z,-25.6
2022-09-06T19:18:23.405Z,-25.8
2022-09-06T19:20:24.868Z,-26.1
2022-09-06T19:22:25.998Z,-25.7
2022-09-06T19:24:27.499Z,-25.8
2022-09-06T19:26:28.621Z,-25.7
2022-09-06T19:28:30.339Z,-25.9
2022-09-06T19:30:40.009Z,-25.6
2022-09-06T19:32:33.213Z,-25.7
2022-09-06T19:34:34.513Z,-25.5
2022-09-06T19:36:36.309Z,-25.7
2022-09-06T19:38:52.931Z,-25.7
2022-09-06T19:40:39.178Z,-26
2022-09-06T19:42:40.304Z,-25.4
2022-09-06T19:44:42.099Z,-25.8
2022-09-06T19:46:45.560Z,-25.9
2022-09-06T19:48:44.978Z,-25.9
2022-09-06T19:52:48.223Z,-25.7
2022-09-06T19:54:49.206Z,-25.9
2022-09-06T20:00:52.540Z,-25.7
2022-09-06T20:02:53.896Z,-25.7
2022-09-06T20:04:54.893Z,-25.8
2022-09-06T20:08:57.912Z,-25.9
2022-09-06T20:10:58.825Z,-25.9
2022-09-06T20:13:00.624Z,-25.7
2022-09-06T20:15:01.720Z,-25.4
2022-09-06T20:17:29.475Z,-25.5
2022-09-06T20:21:05.594Z,-25.7
2022-09-06T20:23:07.195Z,-26.2
2022-09-06T20:25:08.602Z,-25.5
2022-09-06T20:27:09.552Z,-25.8
2022-09-06T20:29:11.079Z,-25.8
2022-09-06T20:31:12.353Z,-25.6
2022-09-06T20:33:13.587Z,-25.7
2022-09-06T20:35:14.605Z,-25.6
2022-09-06T20:39:17.533Z,-25.6
2022-09-06T20:41:18.885Z,-25.8
2022-09-06T20:47:22.696Z,-25.7
2022-09-06T20:51:25.089Z,-25.7
2022-09-06T20:53:26.147Z,-25.7
2022-09-06T20:55:27.810Z,-25.8
2022-09-06T20:57:29.132Z,-25.8
2022-09-06T21:01:32.581Z,-25.6
2022-09-06T21:03:33.933Z,-25.7
2022-09-06T21:05:35.582Z,-26.1
2022-09-06T21:07:37.107Z,-25.6
2022-09-06T21:09:38.796Z,-25.5
2022-09-06T21:11:39.699Z,-25.8
2022-09-06T21:13:41.453Z,-25.9
2022-09-06T21:19:45.720Z,-25.9
2022-09-06T21:21:47.262Z,-25.8
2022-09-06T21:23:48.258Z,-25.6
2022-09-06T21:25:49.502Z,-25.6
2022-09-06T21:27:53.867Z,-25.6
2022-09-06T21:29:51.974Z,-26
2022-09-06T21:33:54.914Z,-25.5
2022-09-06T21:35:56.725Z,-25.6
2022-09-06T21:37:58.328Z,-25.6
2022-09-06T21:39:59.690Z,-25.6
2022-09-06T21:42:01.338Z,-25.8
2022-09-06T21:44:11.396Z,-25.8
2022-09-06T21:46:04.021Z,-25.7
2022-09-06T21:48:05.813Z,-25.7
2022-09-06T21:50:07.556Z,-25.6
2022-09-06T21:52:08.712Z,-25.8
2022-09-06T21:56:11.783Z,-25.9
2022-09-06T21:58:13.175Z,-25.7
2022-09-06T22:00:14.917Z,-25.7
2022-09-06T22:02:16.306Z,-25.7
2022-09-06T22:04:18.027Z,-25.6
2022-09-06T22:06:19.227Z,-25.6
2022-09-06T22:10:21.857Z,-25.6
2022-09-06T22:12:23.227Z,-25.5
2022-09-06T22:14:24.572Z,-25.7
2022-09-06T22:16:26.297Z,-25.7
2022-09-06T22:19:11.446Z,-25.7
2022-09-06T22:21:12.318Z,-25.5
2022-09-06T22:23:13.233Z,-25.6
2022-09-06T22:25:15.017Z,-25.5
2022-09-06T22:27:16.688Z,-25.4
2022-09-06T22:29:18.036Z,-25.6
2022-09-06T22:31:19.051Z,-25.7
2022-09-06T22:33:20.232Z,-25.5
2022-09-06T22:39:24.802Z,-25.5
2022-09-06T22:41:27.569Z,-25.5
2022-09-06T22:43:27.936Z,-25.7
2022-09-06T22:45:29.137Z,-25.5
2022-09-06T22:47:30.256Z,-25.9
2022-09-06T22:49:31.622Z,-25.5
2022-09-06T22:53:34.777Z,-25.6
2022-09-06T22:55:35.948Z,-25.6
2022-09-06T22:57:37.158Z,-25.6
2022-09-06T22:59:38.940Z,-25.6
2022-09-06T23:01:39.925Z,-25.6
2022-09-06T23:05:42.097Z,-25.6
2022-09-06T23:07:43.897Z,-25.5
2022-09-06T23:09:45.520Z,-25.5
2022-09-06T23:11:47.069Z,-25.5
2022-09-06T23:13:48.180Z,-25.6
2022-09-06T23:15:49.367Z,-25.7
2022-09-06T23:17:50.476Z,-25.6
2022-09-06T23:19:51.854Z,-25.3
2022-09-06T23:21:53.344Z,-25.5
2022-09-06T23:23:54.274Z,-25.3
2022-09-06T23:25:55.888Z,-25.8
2022-09-06T23:27:57.007Z,-25.5
2022-09-06T23:29:58.843Z,-25.6
2022-09-06T23:32:00.083Z,-25.7
2022-09-06T23:34:01.709Z,-25.6
2022-09-06T23:36:03.337Z,-25.7
2022-09-06T23:38:05.167Z,-25.5
2022-09-06T23:40:09.046Z,-25.6
2022-09-06T23:42:08.367Z,-25.5
2022-09-06T23:44:10.210Z,-25.5
2022-09-06T23:48:12.644Z,-25.3
2022-09-06T23:52:15.081Z,-25.4
2022-09-06T23:54:16.469Z,-25.7
2022-09-06T23:56:18.246Z,-25.6
2022-09-06T23:58:19.424Z,-25.5
